Lake Wildwood, California
Current Conditions -  °F | °C
As of 3:40 PM on Thursday 18 Dec 2014 (Local Time) from KGOO Reporting Station
Clear Clear  
Wind Chill: 48°   Ceiling: Unl
Heat Index: 48°   Visibility: 10mi
Dew Point: 39°   Wind: 3mph
Humidity: 71%   Direction: 180°S
Pressure: 30.15"   Gusts: NA
Location:  39.1921°N, 121.19°W
Report Text: KGOO 182340Z AUTO 18003KT 10SM CLR 09/04 A3015 RMK AO1
Loading
Personal Weather Stations






























Interactive Weather Map New forecast layout! Learn more

10-Day Weather Forecast

Advertisements
Track Severe Weather on mobile